Time;durP1;ratioP1;P1;durP2;ratioP2;P2;SDS_P1;SDS_P2;PMS_P1;PMS_P2;Temp;Humidity;BMP_temperature;BMP_pressure;BME280_temperature;BME280_humidity;BME280_pressure;Samples;Min_cycle;Max_cycle;Signal;HPM_P1;HPM_P2
2021/06/22 03:33:00;;;;;;;23.15;6.72;;;;;;;16.15;84.66;92211.72;4768666;27;20067;-78
2021/06/22 03:35:28;;;;;;;24.63;7.28;;;;;;;16.14;85.00;92215.44;4770390;30;20056;-78
2021/06/22 03:37:54;;;;;;;30.33;7.57;;;;;;;16.15;86.07;92220.41;4768852;30;20039;-78
2021/06/22 03:40:21;;;;;;;30.15;6.10;;;;;;;16.14;84.82;92212.81;4768128;30;20071;-78
2021/06/22 03:42:47;;;;;;;30.77;7.28;;;;;;;16.14;84.11;92223.38;4751826;30;20111;-78
2021/06/22 03:45:14;;;;;;;19.35;6.88;;;;;;;16.15;84.37;92211.72;4751356;30;20048;-78
2021/06/22 03:47:43;;;;;;;25.23;7.20;;;;;;;16.16;84.80;92216.66;4751130;30;20070;-78
2021/06/22 03:50:10;;;;;;;27.92;8.05;;;;;;;16.17;84.70;92210.28;4751797;30;20052;-77
2021/06/22 03:52:36;;;;;;;35.80;8.77;;;;;;;16.18;84.74;92205.78;4751388;30;20028;-79
2021/06/22 03:55:26;;;;;;;36.13;7.68;;;;;;;16.22;84.55;92209.31;4736618;30;20055;-77
2021/06/22 03:58:05;;;;;;;34.10;7.80;;;;;;;16.37;82.88;92208.69;4751882;30;20098;-78
2021/06/22 04:00:44;;;;;;;27.35;6.88;;;;;;;16.31;83.34;92207.34;4753602;30;20044;-78
2021/06/22 04:03:14;;;;;;;25.98;7.82;;;;;;;16.28;83.74;92208.00;4755247;30;20040;-79
2021/06/22 04:05:59;;;;;;;31.85;7.72;;;;;;;16.26;85.15;92212.84;4754320;30;20137;-78
2021/06/22 04:08:29;;;;;;;23.23;7.20;;;;;;;16.27;85.00;92214.38;4739114;30;20048;-79
2021/06/22 04:11:02;;;;;;;28.42;7.18;;;;;;;16.29;84.83;92206.13;4754021;30;20045;-78
2021/06/22 04:13:28;;;;;;;27.17;7.10;;;;;;;16.31;84.82;92215.28;4739262;30;20470;-78
2021/06/22 04:15:56;;;;;;;33.95;7.53;;;;;;;16.38;84.83;92220.78;4753616;30;20458;-78
2021/06/22 04:18:23;;;;;;;27.65;8.00;;;;;;;16.43;84.80;92215.28;4742205;30;20048;-78
2021/06/22 04:20:49;;;;;;;34.15;7.07;;;;;;;16.50;83.02;92224.53;4738926;30;20457;-78
2021/06/22 04:23:17;;;;;;;26.75;6.22;;;;;;;16.56;81.60;92220.59;4739265;30;20121;-78
2021/06/22 04:25:44;;;;;;;35.50;6.47;;;;;;;16.61;78.91;92234.34;4754746;30;20048;-78
2021/06/22 04:28:11;;;;;;;21.75;8.25;;;;;;;16.67;79.27;92236.78;4738452;30;20075;-78
2021/06/22 04:30:38;;;;;;;36.13;7.35;;;;;;;16.71;81.30;92241.09;4752295;30;20048;-78
2021/06/22 04:33:04;;;;;;;32.05;7.55;;;;;;;16.74;81.64;92248.34;4735855;30;20056;-78
2021/06/22 04:35:31;;;;;;;25.40;7.40;;;;;;;16.80;80.82;92244.44;4737305;30;20100;-79
2021/06/22 04:38:01;;;;;;;31.45;7.90;;;;;;;16.84;81.03;92247.97;4737101;30;20076;-78
2021/06/22 04:40:28;;;;;;;25.00;7.05;;;;;;;16.92;80.33;92248.16;4735234;30;20055;-78
2021/06/22 04:42:53;;;;;;;32.38;7.45;;;;;;;16.96;78.95;92249.81;4736816;30;20123;-78
2021/06/22 04:45:19;;;;;;;36.15;7.13;;;;;;;16.99;77.76;92258.97;4735343;30;20047;-78
2021/06/22 04:47:45;;;;;;;26.73;7.15;;;;;;;17.12;77.96;92260.50;4735550;30;20037;-78
2021/06/22 04:50:11;;;;;;;28.35;6.75;;;;;;;17.20;78.01;92258.84;4737160;30;20097;-77
2021/06/22 04:52:37;;;;;;;29.10;6.93;;;;;;;17.31;77.24;92261.81;4735524;30;20050;-78
2021/06/22 04:55:11;;;;;;;25.50;6.55;;;;;;;17.41;76.15;92243.59;4735506;30;20037;-78
2021/06/22 04:57:37;;;;;;;31.38;6.53;;;;;;;17.47;73.91;92260.00;4736809;30;20040;-78
2021/06/22 05:00:04;;;;;;;28.27;6.03;;;;;;;17.58;74.07;92247.84;4721393;30;20037;-78
2021/06/22 05:02:29;;;;;;;24.58;6.03;;;;;;;17.54;73.98;92249.66;4736517;30;20044;-79
2021/06/22 05:04:55;;;;;;;26.95;6.15;;;;;;;17.74;73.10;92255.84;4721661;30;20127;-78
2021/06/22 05:07:21;;;;;;;31.42;6.15;;;;;;;17.88;73.80;92251.00;4735761;30;20132;-78
2021/06/22 05:09:46;;;;;;;25.17;5.57;;;;;;;18.09;72.88;92255.34;4735479;30;20106;-77
2021/06/22 05:12:12;;;;;;;27.45;7.15;;;;;;;18.22;72.78;92256.06;4736221;30;20044;-78
2021/06/22 05:14:38;;;;;;;32.55;6.22;;;;;;;18.20;70.69;92266.97;4721421;30;20149;-78
2021/06/22 05:17:03;;;;;;;28.52;5.85;;;;;;;18.22;71.43;92261.34;4735359;30;20045;-78
2021/06/22 05:19:29;;;;;;;25.95;5.88;;;;;;;18.26;72.04;92270.16;4720627;30;20049;-78
2021/06/22 05:21:54;;;;;;;29.92;6.15;;;;;;;18.20;72.75;92266.97;4705849;30;20044;-78
2021/06/22 05:24:20;;;;;;;27.77;6.15;;;;;;;18.22;72.06;92264.00;4737136;30;20048;-79
2021/06/22 05:26:46;;;;;;;23.88;6.15;;;;;;;18.27;72.55;92264.53;4738109;30;20132;-79
2021/06/22 05:29:12;;;;;;;27.13;6.18;;;;;;;18.31;73.22;92277.88;4737426;30;20048;-79
2021/06/22 05:31:38;;;;;;;29.75;6.55;;;;;;;17.93;74.26;92265.13;4719156;30;20076;-79
2021/06/22 05:34:03;;;;;;;29.02;7.20;;;;;;;18.25;74.83;92272.03;4736837;30;20044;-79
2021/06/22 05:36:29;;;;;;;31.02;6.63;;;;;;;18.42;74.64;92278.91;4735598;30;20514;-79
2021/06/22 05:38:54;;;;;;;31.55;6.70;;;;;;;18.58;73.67;92280.84;4735847;30;20052;-78
2021/06/22 05:41:20;;;;;;;29.95;6.80;;;;;;;18.84;72.68;92269.75;4736102;30;20036;-79
2021/06/22 05:43:46;;;;;;;23.40;6.28;;;;;;;19.08;71.51;92277.53;4736024;30;20040;-79
2021/06/22 05:46:12;;;;;;;26.98;5.82;;;;;;;19.76;69.08;92284.34;4737351;30;20045;-79
2021/06/22 05:48:37;;;;;;;38.22;7.13;;;;;;;21.96;61.29;92283.50;4736004;30;20052;-78
2021/06/22 05:51:03;;;;;;;26.73;5.43;;;;;;;23.48;55.05;92282.75;4735904;30;20044;-79
2021/06/22 05:53:28;;;;;;;22.98;4.93;;;;;;;24.45;53.72;92282.47;4735987;30;20045;-79
2021/06/22 05:55:54;;;;;;;20.70;5.35;;;;;;;24.43;54.19;92277.53;4737557;30;20416;-77
2021/06/22 05:58:20;;;;;;;26.85;5.63;;;;;;;25.52;51.03;92281.91;4736075;30;20488;-80
2021/06/22 06:00:45;;;;;;;29.55;5.38;;;;;;;26.53;48.97;92277.78;4735290;30;20447;-78
2021/06/22 06:03:11;;;;;;;29.30;5.30;;;;;;;25.61;47.33;92290.31;4735319;30;20058;-79
2021/06/22 06:05:37;;;;;;;22.83;5.55;;;;;;;27.31;45.20;92283.88;4739469;30;20040;-79
2021/06/22 06:08:03;;;;;;;24.90;5.93;;;;;;;27.92;44.27;92278.00;4736602;30;20087;-79
2021/06/22 06:10:28;;;;;;;24.73;5.53;;;;;;;28.12;41.83;92285.47;4735952;30;20121;-79
2021/06/22 06:12:54;;;;;;;20.70;5.88;;;;;;;28.77;39.89;92280.09;4735233;30;20049;-79
2021/06/22 06:15:20;;;;;;;25.92;6.00;;;;;;;28.14;44.30;92285.81;4734992;30;20052;-79
2021/06/22 06:17:46;;;;;;;28.90;6.68;;;;;;;28.04;45.12;92287.47;4734520;30;20455;-79
2021/06/22 06:20:13;;;;;;;16.77;5.80;;;;;;;27.81;44.83;92286.13;4735643;30;20037;-79
2021/06/22 06:22:41;;;;;;;31.45;6.13;;;;;;;27.54;46.80;92288.69;4735503;30;20052;-79
2021/06/22 06:25:08;;;;;;;24.48;6.18;;;;;;;25.09;51.18;92287.22;4735827;30;20072;-79
2021/06/22 06:27:56;;;;;;;23.00;6.90;;;;;;;25.21;52.50;92294.16;4735448;30;20068;-78
2021/06/22 06:30:26;;;;;;;35.08;6.93;;;;;;;25.17;49.74;92282.63;4733549;30;20503;-79
2021/06/22 06:32:52;;;;;;;29.65;7.10;;;;;;;26.98;46.69;92282.56;4733762;30;20118;-79
2021/06/22 06:35:19;;;;;;;26.42;6.57;;;;;;;27.27;45.42;92285.06;4734968;30;20067;-79
2021/06/22 06:37:45;;;;;;;25.00;6.07;;;;;;;26.19;48.47;92290.97;4736088;30;20068;-79
2021/06/22 06:40:11;;;;;;;32.63;6.03;;;;;;;26.44;46.55;92296.25;4735620;30;20040;-78
2021/06/22 06:42:38;;;;;;;21.95;7.13;;;;;;;24.59;53.15;92293.25;4735511;30;20377;-79
2021/06/22 06:45:07;;;;;;;25.92;6.95;;;;;;;23.18;59.06;92296.25;4735157;30;20048;-78
2021/06/22 06:47:32;;;;;;;26.77;7.50;;;;;;;23.34;56.48;92293.31;4743708;30;20044;-78
2021/06/22 06:49:58;;;;;;;30.08;6.93;;;;;;;22.74;57.24;92296.19;4752205;30;20080;-77
2021/06/22 06:52:24;;;;;;;37.63;8.35;;;;;;;22.47;59.12;92298.97;4751637;30;20434;-78
2021/06/22 06:54:49;;;;;;;35.33;6.88;;;;;;;22.42;61.51;92301.97;4751431;30;20044;-78
2021/06/22 06:57:15;;;;;;;27.83;7.40;;;;;;;22.48;60.87;92303.19;4751468;30;20139;-78
2021/06/22 06:59:41;;;;;;;23.95;6.95;;;;;;;22.72;60.29;92303.78;4752042;30;20047;-78
2021/06/22 07:02:06;;;;;;;25.55;6.45;;;;;;;22.31;58.15;92303.75;4751398;30;20054;-78
2021/06/22 07:04:33;;;;;;;21.00;6.13;;;;;;;21.50;60.33;92307.59;4751121;30;20048;-77
2021/06/22 07:06:59;;;;;;;24.23;6.60;;;;;;;21.50;63.37;92307.59;4751424;30;20509;-77
2021/06/22 07:09:25;;;;;;;31.58;7.03;;;;;;;20.85;67.20;92314.56;4751141;30;20131;-77
2021/06/22 07:11:51;;;;;;;28.60;7.85;;;;;;;20.09;70.27;92312.34;4749912;30;20105;-78
2021/06/22 07:14:16;;;;;;;38.97;9.02;;;;;;;19.91;70.54;92316.53;4750890;30;20044;-77
2021/06/22 07:16:42;;;;;;;30.92;7.53;;;;;;;19.61;71.40;92313.56;4751177;30;20515;-78
2021/06/22 07:19:08;;;;;;;35.35;9.73;;;;;;;19.67;71.15;92314.84;4750010;30;20058;-77
2021/06/22 07:21:34;;;;;;;30.20;7.50;;;;;;;19.38;72.44;92310.78;4749654;30;20082;-78
2021/06/22 07:24:00;;;;;;;28.20;8.20;;;;;;;19.11;73.06;92316.63;4749830;30;20048;-78
2021/06/22 07:26:25;;;;;;;28.42;7.78;;;;;;;19.21;72.79;92325.97;4751215;30;20393;-78
2021/06/22 07:28:52;;;;;;;38.17;9.23;;;;;;;18.93;73.06;92320.72;4750675;30;20048;-78
2021/06/22 07:31:18;;;;;;;34.13;9.07;;;;;;;19.18;72.78;92318.66;4748190;30;20520;-77
2021/06/22 07:33:44;;;;;;;30.75;9.10;;;;;;;19.30;72.41;92315.94;4751325;30;20062;-78
2021/06/22 07:36:10;;;;;;;34.90;8.93;;;;;;;19.62;70.09;92318.53;4754787;30;20040;-77
2021/06/22 07:38:36;;;;;;;31.05;8.43;;;;;;;19.72;70.97;92320.69;4753493;30;20048;-78
2021/06/22 07:41:03;;;;;;;29.50;8.18;;;;;;;19.84;69.53;92319.03;4753157;30;20087;-78
2021/06/22 07:43:29;;;;;;;30.70;8.27;;;;;;;20.00;70.41;92314.44;4754100;30;20063;-77
2021/06/22 07:45:55;;;;;;;31.50;9.13;;;;;;;20.07;70.55;92311.16;4754859;30;20040;-78
2021/06/22 07:48:20;;;;;;;29.20;8.35;;;;;;;20.68;68.72;92309.69;4754207;30;20055;-78
2021/06/22 07:50:46;;;;;;;33.85;8.23;;;;;;;20.68;67.02;92305.13;4753306;30;20044;-78
2021/06/22 07:53:12;;;;;;;25.63;7.75;;;;;;;20.82;65.80;92301.94;4738948;30;20411;-78
2021/06/22 07:55:37;;;;;;;35.17;8.10;;;;;;;20.92;67.95;92309.34;4752895;30;20048;-78
2021/06/22 07:58:03;;;;;;;30.45;7.88;;;;;;;21.07;64.66;92309.56;4754358;30;20041;-78
2021/06/22 08:00:43;;;;;;;32.55;7.72;;;;;;;21.39;66.54;92313.53;4754063;30;20040;-77
2021/06/22 08:03:12;;;;;;;25.15;8.55;;;;;;;21.29;64.82;92316.78;4754107;30;20131;-77
2021/06/22 08:05:37;;;;;;;20.02;7.55;;;;;;;20.64;67.07;92324.81;4754172;30;20113;-77
2021/06/22 08:08:04;;;;;;;33.33;6.93;;;;;;;20.74;64.57;92326.91;4754277;30;20060;-77
2021/06/22 08:10:29;;;;;;;24.27;6.95;;;;;;;20.75;62.16;92315.13;4752498;30;20097;-78
2021/06/22 08:12:57;;;;;;;35.65;7.80;;;;;;;20.77;63.53;92320.84;4753935;30;20044;-78
2021/06/22 08:15:22;;;;;;;32.92;8.18;;;;;;;20.34;69.12;92318.16;4753822;30;20044;-78
2021/06/22 08:17:48;;;;;;;32.13;7.70;;;;;;;20.35;69.84;92325.03;4754135;30;20082;-78
2021/06/22 08:20:14;;;;;;;29.55;8.18;;;;;;;20.13;70.99;92323.06;4753955;30;20047;-78
2021/06/22 08:22:39;;;;;;;30.33;7.80;;;;;;;20.00;70.00;92326.97;4753459;30;20048;-77
2021/06/22 08:25:08;;;;;;;29.20;8.32;;;;;;;20.03;70.27;92331.56;4753657;30;20124;-77
2021/06/22 08:27:34;;;;;;;28.05;7.82;;;;;;;20.25;68.74;92332.78;4752646;30;20249;-77
2021/06/22 08:29:59;;;;;;;25.02;7.68;;;;;;;20.32;68.64;92331.03;4753590;30;20414;-77
2021/06/22 08:32:25;;;;;;;22.55;7.70;;;;;;;20.33;68.27;92337.88;4737982;30;20068;-77
2021/06/22 08:34:51;;;;;;;25.33;7.18;;;;;;;20.47;67.69;92337.38;4736120;30;20048;-78
2021/06/22 08:37:16;;;;;;;22.67;6.60;;;;;;;20.51;67.21;92337.44;4734873;30;20463;-77
2021/06/22 08:39:42;;;;;;;24.77;6.65;;;;;;;20.52;64.84;92345.06;4735795;30;20032;-78
2021/06/22 08:42:10;;;;;;;20.67;7.15;;;;;;;20.58;66.76;92342.94;4735819;30;20068;-78
2021/06/22 08:44:38;;;;;;;24.02;6.50;;;;;;;20.53;66.73;92351.16;4735581;30;20085;-78
2021/06/22 08:47:04;;;;;;;32.40;7.85;;;;;;;20.99;66.16;92346.72;4734732;30;20045;-78
2021/06/22 08:49:33;;;;;;;24.52;7.10;;;;;;;21.41;64.25;92348.59;4735762;30;20111;-78
2021/06/22 08:52:00;;;;;;;27.25;6.43;;;;;;;21.70;62.82;92345.56;4736003;30;20419;-78
2021/06/22 08:54:27;;;;;;;26.08;6.90;;;;;;;21.97;62.53;92349.00;4720335;30;20048;-78
2021/06/22 08:56:55;;;;;;;28.05;6.68;;;;;;;21.81;62.75;92359.81;4736330;30;20033;-78
2021/06/22 08:59:20;;;;;;;24.17;6.20;;;;;;;21.71;64.98;92353.22;4735882;30;20440;-78
2021/06/22 09:01:46;;;;;;;17.35;7.07;;;;;;;20.99;66.25;92353.94;4719576;30;20045;-78
2021/06/22 09:04:12;;;;;;;33.72;8.63;;;;;;;21.02;67.23;92357.78;4734542;30;20830;-78
2021/06/22 09:06:46;;;;;;;23.25;6.60;;;;;;;21.20;64.83;92353.50;4735390;30;20045;-77
2021/06/22 09:09:12;;;;;;;22.30;5.97;;;;;;;21.51;63.51;92359.75;4735539;30;20515;-77
2021/06/22 09:11:38;;;;;;;24.20;6.95;;;;;;;21.57;65.02;92355.63;4735273;30;20041;-78
2021/06/22 09:14:06;;;;;;;20.02;7.22;;;;;;;21.26;63.33;92359.31;4734533;30;20049;-78
2021/06/22 09:16:32;;;;;;;27.52;7.72;;;;;;;20.98;65.00;92366.47;4734274;30;20051;-77
2021/06/22 09:19:10;;;;;;;27.05;7.97;;;;;;;20.76;67.94;92367.19;4735161;30;20055;-77
2021/06/22 09:21:46;;;;;;;22.38;8.27;;;;;;;20.69;67.65;92369.72;4734960;30;20036;-77
2021/06/22 09:24:16;;;;;;;25.55;7.63;;;;;;;20.61;67.57;92366.16;4735254;30;20130;-77
2021/06/22 09:26:44;;;;;;;25.25;7.30;;;;;;;20.99;66.43;92378.63;4734742;30;20555;-78
2021/06/22 09:29:13;;;;;;;25.05;7.90;;;;;;;21.04;64.83;92374.91;4735124;30;20178;-78
2021/06/22 09:31:54;;;;;;;24.67;7.78;;;;;;;21.07;66.68;92376.09;4739902;30;20429;-78
2021/06/22 09:34:21;;;;;;;22.38;8.40;;;;;;;21.04;66.19;92384.81;4752398;30;20036;-77
2021/06/22 09:36:56;;;;;;;22.60;7.38;;;;;;;21.32;65.55;92377.31;4752888;30;20132;-78
2021/06/22 09:39:24;;;;;;;33.50;7.45;;;;;;;20.81;66.36;92388.19;4752748;30;20032;-78
2021/06/22 09:41:51;;;;;;;22.67;7.90;;;;;;;20.88;66.85;92385.66;4752412;30;20406;-77
2021/06/22 09:44:29;;;;;;;22.38;7.57;;;;;;;20.99;65.80;92389.28;4752745;30;20044;-78
2021/06/22 09:47:01;;;;;;;27.00;7.88;;;;;;;21.04;65.18;92390.13;4751143;30;20044;-78
2021/06/22 09:49:30;;;;;;;29.15;7.40;;;;;;;20.85;63.96;92398.88;4736461;30;20580;-77
2021/06/22 09:52:05;;;;;;;30.83;8.38;;;;;;;20.61;67.02;92395.41;4752012;30;20056;-77
2021/06/22 09:54:45;;;;;;;22.52;8.10;;;;;;;20.59;66.76;92401.06;4750745;30;20512;-77
2021/06/22 09:57:19;;;;;;;20.85;7.93;;;;;;;20.92;66.18;92396.38;4754892;30;20036;-77
2021/06/22 10:00:10;;;;;;;23.35;7.90;;;;;;;21.07;65.10;92394.72;4756980;30;20055;-77
2021/06/22 10:02:50;;;;;;;27.92;8.68;;;;;;;21.01;64.66;92402.25;4736196;30;20032;-77
2021/06/22 10:05:17;;;;;;;20.85;8.00;;;;;;;20.86;64.19;92400.44;4751004;30;20044;-77
2021/06/22 10:07:43;;;;;;;29.90;8.27;;;;;;;20.86;66.18;92406.53;4721142;30;20043;-77
2021/06/22 10:10:09;;;;;;;27.75;8.18;;;;;;;20.66;64.73;92405.00;4752049;30;20048;-77
2021/06/22 10:12:40;;;;;;;22.73;7.80;;;;;;;20.95;64.02;92407.06;4751697;30;20048;-77
2021/06/22 10:15:07;;;;;;;27.77;8.30;;;;;;;21.26;64.43;92407.25;4750973;30;20068;-78
2021/06/22 10:17:33;;;;;;;36.28;8.45;;;;;;;20.91;64.02;92405.47;4736312;30;20106;-76
2021/06/22 10:20:01;;;;;;;24.50;8.52;;;;;;;21.13;63.92;92409.28;4736181;30;20048;-77
2021/06/22 10:22:31;;;;;;;28.00;8.80;;;;;;;20.91;63.41;92419.53;4751582;30;20083;-77
2021/06/22 10:25:00;;;;;;;29.02;8.15;;;;;;;21.16;62.90;92419.22;4751485;30;20056;-77
2021/06/22 10:27:26;;;;;;;28.27;8.93;;;;;;;21.04;64.18;92422.81;4735944;30;20122;-78
2021/06/22 10:29:54;;;;;;;35.40;8.38;;;;;;;21.28;63.45;92416.41;4750240;30;20593;-78
2021/06/22 10:32:23;;;;;;;33.35;9.15;;;;;;;21.07;63.36;92422.09;4715735;30;20196;-78
2021/06/22 10:34:51;;;;;;;37.17;10.18;;;;;;;20.99;64.30;92423.88;4718407;30;20044;-78
2021/06/22 10:37:39;;;;;;;29.55;10.23;;;;;;;21.16;64.21;92419.97;4733170;30;20032;-77
2021/06/22 10:40:25;;;;;;;33.08;9.98;;;;;;;21.21;64.75;92421.63;4734989;30;20408;-78
2021/06/22 10:42:56;;;;;;;24.73;9.48;;;;;;;21.18;64.78;92428.38;4737213;30;20038;-78
2021/06/22 10:45:22;;;;;;;36.33;9.73;;;;;;;20.95;63.78;92424.94;4721418;30;20048;-77
2021/06/22 10:47:49;;;;;;;21.95;9.60;;;;;;;21.14;64.40;92427.59;4732685;30;20035;-77
2021/06/22 10:50:23;;;;;;;29.15;9.32;;;;;;;21.49;63.18;92436.56;4732732;30;20045;-77
2021/06/22 10:53:38;;;;;;;27.10;10.40;;;;;;;21.97;60.66;92437.69;4732919;30;20527;-77
2021/06/22 10:56:13;;;;;;;26.30;8.27;;;;;;;21.65;59.45;92425.78;4715488;30;20052;-76
2021/06/22 10:58:39;;;;;;;26.30;10.20;;;;;;;22.20;61.20;92429.66;4731639;30;20048;-77
2021/06/22 11:01:06;;;;;;;29.98;8.80;;;;;;;22.01;61.79;92429.75;4717131;30;20470;-77
2021/06/22 11:03:34;;;;;;;44.22;10.20;;;;;;;22.33;60.78;92424.13;4733490;30;20463;-77
2021/06/22 11:06:02;;;;;;;28.80;8.73;;;;;;;22.68;61.08;92418.50;4732817;30;20454;-77
2021/06/22 11:08:30;;;;;;;32.15;9.32;;;;;;;23.11;58.38;92421.66;4731066;30;20071;-77
2021/06/22 11:10:56;;;;;;;26.73;9.18;;;;;;;23.21;58.05;92410.31;4731241;30;20105;-78
2021/06/22 11:13:37;;;;;;;34.80;10.50;;;;;;;22.71;58.70;92417.75;4732966;30;20049;-77
2021/06/22 11:16:26;;;;;;;32.03;10.15;;;;;;;22.82;58.68;92423.22;4731642;30;20581;-77
2021/06/22 11:18:55;;;;;;;29.55;8.60;;;;;;;22.77;58.58;92420.88;4731280;30;20111;-77
2021/06/22 11:21:33;;;;;;;25.75;8.55;;;;;;;23.17;57.03;92412.19;4732897;30;20511;-78
2021/06/22 11:24:06;;;;;;;28.80;8.18;;;;;;;22.90;58.66;92422.19;4731499;30;20041;-77
2021/06/22 11:26:44;;;;;;;28.13;8.65;;;;;;;22.56;59.06;92416.84;4733273;30;20487;-78
2021/06/22 11:29:12;;;;;;;25.90;8.07;;;;;;;22.74;56.92;92413.59;4731512;30;20053;-77
2021/06/22 11:31:40;;;;;;;31.13;8.38;;;;;;;22.65;59.06;92420.00;4745072;30;20059;-77
2021/06/22 11:34:38;;;;;;;32.33;8.13;;;;;;;23.27;57.84;92411.53;4766734;30;20450;-77
2021/06/22 11:37:06;;;;;;;25.63;8.02;;;;;;;23.04;54.75;92424.25;4756024;30;20051;-77
2021/06/22 11:39:32;;;;;;;27.85;9.10;;;;;;;23.52;54.24;92416.31;4766808;30;20147;-78
2021/06/22 11:42:06;;;;;;;25.13;7.68;;;;;;;23.34;55.41;92413.50;4766306;30;20559;-77
2021/06/22 11:44:34;;;;;;;28.60;7.22;;;;;;;23.27;54.78;92416.88;4766764;30;20133;-77
2021/06/22 11:47:01;;;;;;;27.67;8.55;;;;;;;23.15;54.43;92408.38;4766712;30;20032;-77
2021/06/22 11:49:44;;;;;;;23.35;8.05;;;;;;;23.60;54.38;92401.91;4737281;30;20047;-77
2021/06/22 11:52:12;;;;;;;25.80;7.95;;;;;;;23.74;53.66;92416.53;4767674;30;20055;-77
2021/06/22 11:54:47;;;;;;;19.50;7.15;;;;;;;23.35;55.12;92407.03;4751807;30;20538;-78
2021/06/22 11:57:14;;;;;;;23.40;7.35;;;;;;;23.37;50.78;92414.66;4751770;30;20070;-77
2021/06/22 11:59:40;;;;;;;20.58;7.30;;;;;;;23.79;52.71;92400.16;4767643;30;20457;-77
2021/06/22 12:02:06;;;;;;;25.52;8.13;;;;;;;23.52;53.89;92404.88;4767746;30;20139;-78
2021/06/22 12:04:32;;;;;;;16.08;6.18;;;;;;;23.18;53.37;92415.63;4767692;30;20054;-78
2021/06/22 12:06:58;;;;;;;21.77;7.90;;;;;;;23.41;52.45;92405.53;4751668;30;20043;-78
2021/06/22 12:09:24;;;;;;;19.90;7.30;;;;;;;23.92;52.67;92396.06;4751764;30;20043;-77
2021/06/22 12:11:50;;;;;;;32.53;8.02;;;;;;;23.69;53.65;92412.28;4767622;30;20101;-77
2021/06/22 12:14:17;;;;;;;28.80;7.82;;;;;;;22.81;54.73;92405.69;4767523;30;20403;-77
2021/06/22 12:16:48;;;;;;;25.15;7.32;;;;;;;;;;4767568;30;20043;-77
2021/06/22 12:19:19;;;;;;;22.92;7.57;;;;;;;22.63;53.61;92408.16;4767500;30;20052;-77
2021/06/22 12:21:54;;;;;;;26.13;7.22;;;;;;;23.05;53.47;92405.19;4770238;30;20059;-78
2021/06/22 12:24:21;;;;;;;20.10;7.72;;;;;;;23.30;52.22;92415.34;4769632;30;20109;-78
2021/06/22 12:26:50;;;;;;;24.60;7.38;;;;;;;23.24;52.59;92395.50;4770617;30;20039;-77
2021/06/22 12:29:30;;;;;;;27.10;7.60;;;;;;;22.62;53.45;92404.69;4770651;30;20047;-78
2021/06/22 12:32:00;;;;;;;21.40;6.82;;;;;;;22.27;55.11;92414.91;4758386;30;20151;-77
2021/06/22 12:34:29;;;;;;;20.67;7.22;;;;;;;22.33;55.38;92410.81;4752888;30;20047;-77
2021/06/22 12:36:56;;;;;;;19.63;7.78;;;;;;;22.84;54.44;92405.72;4752885;30;20047;-77
2021/06/22 12:39:25;;;;;;;25.77;8.52;;;;;;;23.17;52.71;92403.41;4752734;30;20040;-77
2021/06/22 12:41:51;;;;;;;26.90;7.85;;;;;;;23.45;50.98;92395.66;4752492;30;20458;-77
2021/06/22 12:44:26;;;;;;;28.40;7.80;;;;;;;23.30;53.34;92409.25;4752941;30;20075;-77
2021/06/22 12:46:51;;;;;;;23.58;7.85;;;;;;;23.00;52.66;92415.44;4752961;30;20032;-78
2021/06/22 12:49:25;;;;;;;22.52;7.50;;;;;;;22.99;53.16;92416.53;4751412;30;20055;-77
2021/06/22 12:51:56;;;;;;;25.38;6.25;;;;;;;23.38;50.64;92416.22;4752355;30;20503;-78
2021/06/22 12:54:25;;;;;;;25.17;6.78;;;;;;;23.48;48.45;92413.63;4752805;30;20040;-78
2021/06/22 12:56:56;;;;;;;22.85;6.57;;;;;;;23.86;49.81;92409.00;4751703;30;20043;-77
2021/06/22 12:59:23;;;;;;;22.83;7.07;;;;;;;23.96;50.47;92407.56;4736759;30;20048;-77
2021/06/22 13:02:01;;;;;;;25.08;6.88;;;;;;;23.96;51.04;92401.41;4752277;30;20044;-77
2021/06/22 13:04:41;;;;;;;20.65;6.50;;;;;;;23.67;51.33;92406.53;4751314;30;20051;-78
2021/06/22 13:07:12;;;;;;;23.20;7.70;;;;;;;24.20;49.69;92392.78;4752653;30;20036;-77
2021/06/22 13:09:38;;;;;;;29.52;8.30;;;;;;;24.53;49.02;92391.09;4750988;30;20123;-78
2021/06/22 13:12:11;;;;;;;21.20;6.50;;;;;;;24.40;49.23;92395.19;4735843;30;20148;-78
2021/06/22 13:14:44;;;;;;;24.15;6.63;;;;;;;24.14;48.42;92390.84;4752101;30;20052;-77
2021/06/22 13:17:18;;;;;;;22.45;7.13;;;;;;;24.42;49.04;92392.91;4737354;30;20533;-77
2021/06/22 13:19:49;;;;;;;28.45;7.15;;;;;;;24.37;48.51;92387.94;4752346;30;20075;-78
2021/06/22 13:22:48;;;;;;;20.40;7.15;;;;;;;24.16;50.17;92393.91;4751078;30;20515;-77
2021/06/22 13:25:16;;;;;;;21.17;7.47;;;;;;;24.27;49.45;92395.53;4740189;30;20389;-78
2021/06/22 13:27:50;;;;;;;15.85;6.32;;;;;;;24.05;49.59;92405.31;4751865;30;20040;-78
2021/06/22 13:30:27;;;;;;;30.48;7.82;;;;;;;24.29;48.49;92393.22;4750491;30;20052;-78
2021/06/22 13:32:58;;;;;;;24.52;6.50;;;;;;;24.35;51.33;92401.66;4765911;30;20445;-78
2021/06/22 13:35:37;;;;;;;19.92;6.82;;;;;;;24.29;48.47;92403.91;4768310;30;20047;-78
2021/06/22 13:38:08;;;;;;;20.60;6.35;;;;;;;24.73;48.12;92391.56;4749067;30;20162;-78
2021/06/22 13:40:35;;;;;;;23.27;7.03;;;;;;;24.80;48.13;92393.50;4749239;30;20040;-77
2021/06/22 13:43:12;;;;;;;24.17;6.57;;;;;;;24.95;47.21;92395.06;4749124;30;20578;-78
2021/06/22 13:45:49;;;;;;;22.27;7.20;;;;;;;25.04;44.82;92400.84;4749067;30;20084;-78
2021/06/22 13:48:28;;;;;;;17.10;6.38;;;;;;;25.14;46.42;92396.66;4749109;30;20142;-78
2021/06/22 13:50:57;;;;;;;23.25;7.13;;;;;;;25.03;45.29;92406.56;4748847;30;20131;-78
2021/06/22 13:53:27;;;;;;;20.20;6.35;;;;;;;25.23;43.68;92391.72;4749124;30;20587;-78
2021/06/22 13:55:54;;;;;;;17.92;5.70;;;;;;;24.73;44.57;92391.56;4748949;30;20519;-77
2021/06/22 13:58:20;;;;;;;24.08;6.63;;;;;;;24.68;45.38;92392.69;4748930;30;20067;-78
2021/06/22 14:00:52;;;;;;;27.00;6.35;;;;;;;24.40;47.71;92398.63;4748707;30;20048;-78
2021/06/22 14:03:19;;;;;;;21.45;5.93;;;;;;;24.50;48.69;92403.31;4734072;30;20589;-77
2021/06/22 14:05:47;;;;;;;22.50;6.40;;;;;;;24.23;48.61;92404.66;4734193;30;20047;-77
2021/06/22 14:08:13;;;;;;;20.65;5.78;;;;;;;23.92;49.74;92400.66;4751958;30;20055;-77
2021/06/22 14:10:42;;;;;;;22.70;6.38;;;;;;;23.64;50.16;92396.56;4752920;30;20071;-77
2021/06/22 14:13:09;;;;;;;18.20;5.93;;;;;;;24.05;50.17;92399.22;4768862;30;20122;-78
2021/06/22 14:15:36;;;;;;;18.27;5.70;;;;;;;24.47;44.97;92403.25;4768961;30;20043;-77
2021/06/22 14:18:03;;;;;;;19.48;5.28;;;;;;;24.18;47.90;92397.75;4768857;30;20048;-78
2021/06/22 14:20:30;;;;;;;25.30;5.40;;;;;;;24.17;48.50;92398.91;4768653;30;20499;-78
2021/06/22 14:22:56;;;;;;;16.20;6.03;;;;;;;23.53;49.53;92395.72;4767437;30;20039;-78
2021/06/22 14:25:22;;;;;;;14.90;6.30;;;;;;;23.47;50.33;92387.28;4738170;30;20048;-78
2021/06/22 14:27:48;;;;;;;16.42;6.47;;;;;;;23.46;48.44;92386.53;4768712;30;20043;-78
2021/06/22 14:30:15;;;;;;;22.25;6.97;;;;;;;23.10;50.79;92385.41;4738003;30;20032;-77
2021/06/22 14:32:42;;;;;;;16.48;6.45;;;;;;;23.15;50.82;92382.44;4735306;30;20518;-78
2021/06/22 14:35:13;;;;;;;22.20;7.57;;;;;;;23.13;49.64;92384.69;4751024;30;20069;-78
2021/06/22 14:37:39;;;;;;;23.48;6.40;;;;;;;23.06;51.17;92380.06;4749627;30;20054;-78
2021/06/22 14:40:07;;;;;;;22.67;6.70;;;;;;;23.10;51.00;92376.63;4750757;30;20530;-77
2021/06/22 14:42:33;;;;;;;20.38;6.32;;;;;;;23.05;49.31;92383.09;4749496;30;20044;-78
2021/06/22 14:44:59;;;;;;;15.75;6.35;;;;;;;22.95;51.16;92378.38;4748672;30;20138;-78
2021/06/22 14:47:25;;;;;;;18.95;6.07;;;;;;;;;;4749794;30;20398;-78
2021/06/22 14:49:51;;;;;;;27.48;7.00;;;;;;;22.93;55.89;92394.75;4749361;30;20052;-77
2021/06/22 14:52:17;;;;;;;21.98;7.18;;;;;;;22.90;56.01;92398.16;4750655;30;20409;-78
2021/06/22 14:54:43;;;;;;;25.45;6.72;;;;;;;22.86;55.04;92397.34;4750614;30;20048;-77
2021/06/22 14:57:08;;;;;;;20.98;7.05;;;;;;;22.85;55.88;92406.47;4720138;30;20471;-78
2021/06/22 14:59:38;;;;;;;28.15;7.32;;;;;;;22.82;57.01;92423.22;4750429;30;20075;-78
2021/06/22 15:02:03;;;;;;;23.27;8.35;;;;;;;22.78;56.61;92423.16;4749096;30;20043;-77
2021/06/22 15:04:29;;;;;;;21.45;8.00;;;;;;;22.55;57.40;92414.53;4751031;30;20044;-77
2021/06/22 15:06:55;;;;;;;24.40;8.77;;;;;;;22.17;59.02;92417.03;4750519;30;20601;-78